| time (UTC) | temp C | wind direction | speed KPH | gust KPH | rain 1hr cm | rain 24hr cm | rain mn cm | humidity % | barometer mb |
| 20260508220317 | 11 | 312 | 12.9 | 24.1 | 0.00 | 6.81 | 0.00 | 69 | 1017.3 |
| 20260508213317 | 10 | 270 | 8.0 | 22.5 | 0.00 | 6.81 | 0.00 | 71 | 1017.4 |
| 20260508210315 | 7 | 96 | 0.0 | 6.4 | 0.00 | 6.81 | 0.00 | 84 | 1016.8 |
| 20260508203315 | 7 | 304 | 0.0 | 6.4 | 0.00 | 6.81 | 0.00 | 80 | 1016.9 |
| 20260508200333 | 10 | 250 | 0.0 | 11.3 | 0.00 | 6.81 | 0.00 | 69 | 1016.4 |
| 20260508193334 | 10 | 316 | 4.8 | 14.5 | 0.00 | 6.81 | 0.00 | 65 | 1015.9 |
| 20260508190332 | 10 | 244 | 8.0 | 29.0 | 0.00 | 6.81 | 0.00 | 64 | 1015.9 |
| 20260508183331 | 10 | 300 | 12.9 | 29.0 | 0.00 | 6.81 | 0.00 | 63 | 1015.4 |
| 20260508180329 | 10 | 281 | 6.4 | 24.1 | 0.00 | 6.81 | 0.00 | 64 | 1015.3 |
| 20260508173349 | 10 | 293 | 6.4 | 20.9 | 0.00 | 6.81 | 0.00 | 65 | 1015.1 |
| 20260508170327 | 10 | 340 | 12.9 | 33.8 | 0.00 | 6.81 | 0.00 | 65 | 1014.8 |
| 20260508163347 | 10 | 296 | 8.0 | 24.1 | 0.00 | 6.81 | 0.00 | 69 | 1014.9 |
| 20260508160323 | 10 | 299 | 12.9 | 32.2 | 0.00 | 6.81 | 0.00 | 68 | 1015.1 |
| 20260508153323 | 11 | 318 | 16.1 | 38.6 | 0.00 | 6.81 | 0.00 | 71 | 1014.9 |
| 20260508150321 | 10 | 328 | 16.1 | 32.2 | 0.00 | 6.81 | 1.37 | 78 | 1014.9 |
| 20260508143342 | 10 | 311 | 8.0 | 20.9 | 0.00 | 6.81 | 1.37 | 83 | 1014.8 |
| 20260508140319 | 11 | 300 | 8.0 | 19.3 | 0.00 | 6.81 | 1.37 | 84 | 1014.7 |
| 20260508133318 | 10 | 312 | 9.7 | 25.7 | 0.10 | 6.81 | 1.37 | 87 | 1014.8 |
| 20260508130316 | 11 | 269 | 3.2 | 16.1 | 0.10 | 6.81 | 1.37 | 91 | 1014.7 |
| 20260508123316 | 11 | 165 | 8.0 | 20.9 | 0.00 | 6.71 | 1.35 | 95 | 1014.9 |
| 20260508120315 | 11 | 160 | 1.6 | 14.5 | 0.00 | 6.71 | 1.35 | 97 | 1015.2 |
| 20260508113314 | 12 | 231 | 4.8 | 12.9 | 0.30 | 6.71 | 1.35 | 97 | 1014.9 |
| 20260508110353 | 12 | 316 | 1.6 | 9.7 | 1.60 | 6.71 | 1.35 | 98 | 1014.2 |
| 20260508103332 | 13 | 211 | 0.0 | 3.2 | 3.20 | 6.40 | 1.27 | 98 | 1014.0 |
| 20260508100330 | 13 | 309 | 0.0 | 4.8 | 4.19 | 5.00 | 0.99 | 97 | 1014.5 |
| 20260508093350 | 13 | 273 | 4.8 | 11.3 | 2.90 | 3.20 | 0.64 | 96 | 1013.8 |
| 20260508090327 | 15 | 272 | 3.2 | 11.3 | 0.61 | 0.79 | 0.15 | 91 | 1013.0 |
| 20260508083347 | 16 | 261 | 0.0 | 8.0 | 0.10 | 0.30 | 0.05 | 90 | 1013.0 |
| 20260508080323 | 18 | 278 | 4.8 | 9.7 | 0.00 | 0.20 | 0.05 | 86 | 1013.2 |
| 20260508073322 | 18 | 111 | 0.0 | 0.0 | 0.00 | 0.20 | 0.05 | 84 | 1013.5 |
| 20260508070320 | 18 | 84 | 1.6 | 3.2 | 0.00 | 0.20 | 0.05 | 80 | 1013.3 |
| 20260508063320 | 18 | 105 | 0.0 | 0.0 | 0.00 | 0.20 | 0.05 | 83 | 1014.1 |
| 20260508060318 | 18 | 78 | 0.0 | 1.6 | 0.00 | 0.20 | 0.05 | 81 | 1014.1 |
| 20260508053318 | 18 | 46 | 0.0 | 1.6 | 0.20 | 0.20 | 0.05 | 92 | 1014.5 |
| 20260508050316 | 17 | 257 | 0.0 | 0.0 | 0.20 | 0.20 | 0.05 | 92 | 1015.1 |
| 20260508043316 | 20 | 252 | 3.2 | 6.4 | 0.00 | 0.00 | 0.00 | 76 | 1016.2 |
| 20260508040353 | 21 | 289 | 1.6 | 9.7 | 0.00 | 0.00 | 0.00 | 69 | 1016.5 |
| 20260508033332 | 22 | 231 | 1.6 | 9.7 | 0.00 | 0.00 | 0.00 | 66 | 1016.6 |
| 20260508030330 | 21 | 37 | 0.0 | 4.8 | 0.00 | 0.00 | 0.00 | 69 | 1016.4 |
| 20260508023330 | 21 | 103 | 0.0 | 9.7 | 0.00 | 0.00 | 0.00 | 70 | 1016.9 |
| 20260508020348 | 21 | 69 | 1.6 | 6.4 | 0.00 | 0.00 | 0.00 | 66 | 1016.7 |
| 20260508013327 | 21 | 290 | 1.6 | 6.4 | 0.00 | 0.00 | 0.00 | 66 | 1018.0 |
| 20260508010325 | 22 | 306 | 0.0 | 3.2 | 0.00 | 0.00 | 0.00 | 63 | 1018.2 |
| 20260508003325 | 23 | 104 | 3.2 | 6.4 | 0.00 | 0.00 | 0.00 | 54 | 1018.0 |
| 20260508000323 | 22 | 289 | 3.2 | 9.7 | 0.00 | 0.00 | 0.00 | 57 | 1018.4 |
| 20260507233343 | 21 | 167 | 0.0 | 3.2 | 0.00 | 0.00 | 0.00 | 67 | 1018.7 |
| 20260507230319 | 20 | 307 | 0.0 | 3.2 | 0.00 | 0.00 | 0.00 | 72 | 1019.2 |
| 20260507223355 | 17 | 96 | 0.0 | 0.0 | 0.00 | 0.00 | 0.00 | 86 | 1019.4 |